Flight Track Log - Related Links

Times and Time Zones

All times are in EDT time to prevent confusion due to time zone crossing. See the N517MD flight status page for this flight to view local times or setup timezone preferences in your user account.

Time Position Orientation Groundspeed Altitude Reporting Facility
EDT Latitude Longitude Course Direction KTS MPH feet Rate Location/Type
Sun 01:46:35 PM 29.5247 -98.4636 201° Southwest 159 183 1,700  Level Houston Center
Sun 01:47:42 PM 29.4911 -98.4172 130° Southeast 176 203 4,600 2,571 Climbing Houston Center
Sun 01:48:06 PM 29.4764 -98.3989 133° Southeast 192 221 5,600 2,333 Climbing Houston Center
Sun 01:48:36 PM 29.4442 -98.3869 162° South 221 254 6,700 1,935 Climbing Houston Center
Sun 01:49:08 PM 29.4117 -98.3914 187° South 236 272 7,600 1,660 Climbing Houston Center
Sun 01:50:10 PM 29.3583 -98.4522 225° Southwest 271 312 9,300 1,984 Climbing Houston Center
Sun 01:51:12 PM 29.2931 -98.5214 223° Southwest 295 339 11,700 2,304 Climbing Houston Center
Sun 01:52:00 PM 29.2409 -98.6059 201° Southwest  Level FlightAware Approximate
Sun 01:52:15 PM 29.2203 -98.5675 209° Southwest 302 348 14,100  Level Houston Center
Sun 01:53:17 PM 29.1392 -98.6139 207° Southwest 303 349 16,300 1,839 Climbing Houston Center
Sun 01:54:19 PM 29.0619 -98.6583 207° Southwest 311 358 17,900 1,790 Climbing Houston Center
Sun 01:55:21 PM 28.9833 -98.7031 206° Southwest 315 362 20,000 2,081 Climbing Houston Center
Sun 01:56:23 PM 28.9025 -98.7503 207° Southwest 304 350 22,200 1,984 Climbing Houston Center
Sun 01:57:25 PM 28.8278 -98.7925 206° Southwest 301 346 24,100 1,500 Climbing Houston Center
Sun 01:58:27 PM 28.7447 -98.8389 206° Southwest 311 358 25,300 968 Climbing Houston Center
Sun 01:59:29 PM 28.6744 -98.8764 205° Southwest 329 379 26,100 1,016 Climbing Houston Center
Sun 02:00:31 PM 28.5722 -98.9353 207° Southwest 341 392 27,400 1,200 Climbing Houston Center
Sun 02:01:34 PM 28.4856 -98.9842 206° Southwest 346 398 28,600 1,104 Climbing Houston Center
Sun 02:02:36 PM 28.4003 -99.0319 206° Southwest 344 396 29,700 1,016 Climbing Houston Center
Sun 02:03:38 PM 28.3136 -99.0800 206° Southwest 345 397 30,700 871 Climbing Houston Center
Sun 02:04:40 PM 28.2272 -99.1283 206° Southwest 347 399 31,500 629 Climbing Houston Center
Sun 02:05:42 PM 28.1219 -99.1875 206° Southwest 351 404 32,000 242 Climbing Houston Center
Sun 02:06:44 PM 28.0297 -99.2378 206° Southwest 364 419 32,000  Level Houston Center
Sun 02:07:46 PM 27.9344 -99.2914 206° Southwest 380 437 32,000  Level Houston Center
Sun 02:08:48 PM 27.8369 -99.3458 206° Southwest 390 449 32,000  Level Houston Center
Sun 02:09:50 PM 27.7383 -99.4008 206° Southwest 396 456 32,000  Level Houston Center
Sun 02:10:53 PM 27.6189 -99.4672 206° Southwest 401 461 32,000  Level Houston Center
Sun 02:11:55 PM 27.5183 -99.5219 206° Southwest 404 465 32,000  Level Houston Center
Sun 02:13:00 PM 27.4314 -99.5601 193° South  Level Estimated
Sun 02:20:00 PM 26.8698 -99.8053 197° South  Level Estimated
Sun 02:21:00 PM 26.7850 -99.8219 190° South  Level FlightAware Approximate
Sun 02:22:00 PM 26.7002 -99.8384 190° South  Level FlightAware Approximate
Sun 02:23:00 PM 26.6154 -99.8549 190° South  Level FlightAware Approximate
Sun 02:24:00 PM 26.5306 -99.8714 190° South  Level FlightAware Approximate
Sun 02:25:00 PM 26.4458 -99.8879 190° South  Level FlightAware Approximate
Sun 02:26:00 PM 26.3701 -99.9337 195° South  Level Estimated
Sun 02:27:00 PM 26.2844 -99.9428 185° South  Level FlightAware Approximate
Sun 02:28:00 PM 26.2117 -99.9941 197° South  Level Estimated
Sun 02:29:00 PM 26.1261 -100.0040 186° South  Level FlightAware Approximate
Sun 02:30:00 PM 26.0590 -100.0642 195° South  Level Estimated
Sun 02:31:00 PM 25.9730 -100.0652 181° South  Level FlightAware Approximate
Sun 02:32:00 PM 25.9239 -100.1439 197° South  Level Estimated
Sun 02:33:00 PM 25.8748 -100.2225 310° West  Level Estimated
Sun 02:34:00 PM 25.8656 -100.2372 299° West  Level Estimated
Sun 02:35:00 PM 25.8656 -100.2372 318° Northwest  Level Estimated
Sun 02:36:00 PM 25.8656 -100.2372 318° Northwest  Level Estimated
Sun 02:37:00 PM 25.8656 -100.2372 318° Northwest  Level Estimated
Sun 02:38:00 PM 25.8656 -100.2372 318° Northwest  Level Estimated
Sun 02:39:00 PM 25.8656 -100.2372 318° Northwest  Level Estimated
Sun 02:40:00 PM 25.8656 -100.2372 318° Northwest  Level Estimated
Sun 02:41:00 PM 25.8656 -100.2372 318° Northwest  Level Estimated
Sun 02:42:00 PM 25.8656 -100.2372 318° Northwest  Level Estimated
Sun 02:43:00 PM 25.8656 -100.2372 318° Northwest  Level Estimated
Sun 02:44:00 PM 25.8656 -100.2372 318° Northwest  Level Estimated
Sun 02:45:00 PM 25.8656 -100.2372 318° Northwest  Level Estimated
Sun 02:46:00 PM 25.8656 -100.2372 318° Northwest  Level Estimated
Sun 02:47:00 PM 25.8656 -100.2372 318° Northwest  Level Estimated
Sun 02:48:00 PM 25.8656 -100.2372 318° Northwest  Level Estimated
Sun 02:49:00 PM 25.8656 -100.2372 318° Northwest  Level Estimated
Sun 02:50:00 PM 25.8656 -100.2372 318° Northwest  Level Estimated
Sun 02:51:00 PM 25.8656 -100.2372 318° Northwest  Level Estimated
Sun 02:52:00 PM 25.8656 -100.2372 318° Northwest  Level Estimated
Sun 02:53:00 PM 25.8656 -100.2372 318° Northwest  Level Estimated

Login

Don't have an account? Register now (free) for customized features, flight alerts, and more!